Storm Events Database

Event Details

Event Hail
Magnitude 1.00 in.
State TEXAS
County/Area COLLIN
WFO FWD
Report Source Law Enforcement
NCDC Data Source CSV
Begin Date 2009-05-02 13:47:00.0 CST-6
Begin Location 3WNW MCKINNEY
Begin Lat/Lon 33.22/-96.66
End Date 2009-05-02 13:47:00.0 CST-6
Deaths Direct/Indirect 0/0 (fatality details below, when available...)
Injuries Direct/Indirect 0/0
Property Damage 0.00K
Crop Damage 0.00K
Episode Narrative The combination of a southward advancing cold front, warm air advection over the cold front, and an approaching shortwave aided in an explosive period that began the afternoon of May 2nd and continued into the morning hours of May 3rd. Several rounds of severe thunderstorms and thunderstorm clusters moved through north Texas in a very unstable environment. A downburst occurred at Valley Ranch in Irving resulting in the collapse of the Dallas Cowboys' bubble practice facility. Flash flooding and flooding became a problem as several clusters of storms produced heavy rainfall over repeated areas.
Event Narrative Quarter size hail was observed 10 miles southeast of Celina.


     ‚Äč



All events for this episode:

Location County/Zone St. Date Time T.Z. Type Mag Dth Inj PrD CrD
Totals: 0 15 6.222M 0.00K
BROCK PARKER CO. TX 05/02/2009 13:04 CST-6 Thunderstorm Wind 52 kts. EG 0 0 7.00K 0.00K
BROCK PARKER CO. TX 05/02/2009 13:04 CST-6 Hail 1.75 in. 0 0 8.00K 0.00K
BENBROOK TARRANT CO. TX 05/02/2009 13:36 CST-6 Thunderstorm Wind 56 kts. MG 0 0 5.00K 0.00K
BENBROOK TARRANT CO. TX 05/02/2009 13:36 CST-6 Hail 0.88 in. 0 0 0.00K 0.00K
FT WORTH RUSSELL ARP TARRANT CO. TX 05/02/2009 13:46 CST-6 Thunderstorm Wind 52 kts. EG 0 0 5.00K 0.00K
BENBROOK TARRANT CO. TX 05/02/2009 13:47 CST-6 Hail 0.88 in. 0 0 0.00K 0.00K
MCKINNEY COLLIN CO. TX 05/02/2009 13:47 CST-6 Hail 1.00 in. 0 0 0.00K 0.00K
BENBROOK TARRANT CO. TX 05/02/2009 13:48 CST-6 Hail 1.00 in. 0 0 0.00K 0.00K
ARLINGTON TARRANT CO. TX 05/02/2009 14:05 CST-6 Hail 0.75 in. 0 0 0.00K 0.00K
HUCKABAY ERATH CO. TX 05/02/2009 14:08 CST-6 Hail 0.88 in. 0 0 0.00K 0.00K
LAKE DALLAS DENTON CO. TX 05/02/2009 14:15 CST-6 Lightning 0 1 0.00K 0.00K
CARROLLTON DALLAS CO. TX 05/02/2009 14:30 CST-6 Thunderstorm Wind 61 kts. EG 0 12 5.000M 0.00K
CARROLLTON DALLAS CO. TX 05/02/2009 14:35 CST-6 Thunderstorm Wind 61 kts. EG 0 0 5.00K 0.00K
LAKE RAY HUBBARD ROCKWALL CO. TX 05/02/2009 14:43 CST-6 Thunderstorm Wind 52 kts. EG 0 0 7.00K 0.00K
MERIT HUNT CO. TX 05/02/2009 14:55 CST-6 Thunderstorm Wind 55 kts. EG 0 0 2.00K 0.00K
GREENVILLE HUNT CO. TX 05/02/2009 15:02 CST-6 Thunderstorm Wind 61 kts. EG 0 0 5.00K 0.00K
GREENVILLE HUNT CO. TX 05/02/2009 15:04 CST-6 Tornado EF0 0 0 0.00K 0.00K
GREENVILLE HUNT CO. TX 05/02/2009 15:04 CST-6 Hail 1.75 in. 0 0 5.00K 0.00K
(GVT)MAJORS ARPT GRE HUNT CO. TX 05/02/2009 15:05 CST-6 Thunderstorm Wind 61 kts. EG 0 0 1.00K 0.00K
CASH HUNT CO. TX 05/02/2009 15:05 CST-6 Thunderstorm Wind 61 kts. EG 0 0 0.50K 0.00K
SULPHUR BLUFF HOPKINS CO. TX 05/02/2009 15:20 CST-6 Thunderstorm Wind 55 kts. EG 0 0 10.00K 0.00K
COMMERCE HUNT CO. TX 05/02/2009 15:30 CST-6 Thunderstorm Wind 65 kts. EG 0 0 500.00K 0.00K
EMORY RAINS CO. TX 05/02/2009 15:35 CST-6 Thunderstorm Wind 61 kts. EG 0 0 2.00K 0.00K
POSEY HOPKINS CO. TX 05/02/2009 15:35 CST-6 Thunderstorm Wind 55 kts. EG 0 0 5.00K 0.00K
BENBROOK LAKE TARRANT CO. TX 05/02/2009 15:49 CST-6 Hail 0.88 in. 0 0 0.00K 0.00K
DUBLIN ERATH CO. TX 05/02/2009 15:59 CST-6 Hail 1.25 in. 0 0 0.00K 0.00K
SULPHUR SPGS HOPKINS CO. TX 05/02/2009 16:00 CST-6 Heavy Rain 0 2 7.00K 0.00K
SELDEN ERATH CO. TX 05/02/2009 16:10 CST-6 Hail 0.88 in. 0 0 0.00K 0.00K
BENBROOK TARRANT CO. TX 05/02/2009 16:25 CST-6 Hail 0.75 in. 0 0 0.00K 0.00K
SEMINARY HILL TARRANT CO. TX 05/02/2009 16:28 CST-6 Hail 0.88 in. 0 0 0.00K 0.00K
SEMINARY HILL TARRANT CO. TX 05/02/2009 16:33 CST-6 Hail 0.75 in. 0 0 0.00K 0.00K
SEMINARY HILL TARRANT CO. TX 05/02/2009 16:37 CST-6 Hail 0.75 in. 0 0 0.00K 0.00K
POLTECHNIEC TARRANT CO. TX 05/02/2009 16:59 CST-6 Flash Flood 0 0 2.00K 0.00K
ARGYLE DENTON CO. TX 05/02/2009 17:25 CST-6 Hail 1.75 in. 0 0 5.00K 0.00K
ARGYLE DENTON CO. TX 05/02/2009 17:32 CST-6 Hail 1.75 in. 0 0 5.00K 0.00K
MAYHILL DENTON CO. TX 05/02/2009 17:35 CST-6 Hail 1.50 in. 0 0 0.00K 0.00K
LANCASTER DALLAS CO. TX 05/02/2009 17:40 CST-6 Thunderstorm Wind 50 kts. EG 0 0 3.00K 0.00K
MESQUITE DALLAS CO. TX 05/02/2009 17:40 CST-6 Thunderstorm Wind 61 kts. EG 0 0 3.00K 0.00K
SEMINARY HILL TARRANT CO. TX 05/02/2009 17:46 CST-6 Hail 0.75 in. 0 0 0.00K 0.00K
DUNCANVILLE DALLAS CO. TX 05/02/2009 17:48 CST-6 Flash Flood 0 0 2.00K 0.00K
FORNEY KAUFMAN CO. TX 05/02/2009 17:55 CST-6 Thunderstorm Wind 61 kts. EG 0 0 50.00K 0.00K
TERRELL MUNI ARPT KAUFMAN CO. TX 05/02/2009 18:09 CST-6 Thunderstorm Wind 53 kts. MG 0 0 0.00K 0.00K
ELMO KAUFMAN CO. TX 05/02/2009 18:13 CST-6 Thunderstorm Wind 52 kts. EG 0 0 1.00K 0.00K
ELMO KAUFMAN CO. TX 05/02/2009 18:13 CST-6 Thunderstorm Wind 52 kts. EG 0 0 2.00K 0.00K
ELMO KAUFMAN CO. TX 05/02/2009 18:13 CST-6 Thunderstorm Wind 52 kts. EG 0 0 0.50K 0.00K
CORINTH DENTON CO. TX 05/02/2009 18:16 CST-6 Flash Flood 0 0 1.00K 0.00K
TERRELL KAUFMAN CO. TX 05/02/2009 18:23 CST-6 Flash Flood 0 0 1.00K 0.00K
PLANO COLLIN CO. TX 05/02/2009 18:25 CST-6 Flash Flood 0 0 20.00K 0.00K
WILLS PT VAN ZANDT CO. TX 05/02/2009 18:26 CST-6 Thunderstorm Wind 61 kts. EG 0 0 2.00K 0.00K
LAKE TAWAKONI HUNT CO. TX 05/02/2009 18:30 CST-6 Flash Flood 0 0 2.00K 0.00K
EDGEWOOD VAN ZANDT CO. TX 05/02/2009 18:52 CST-6 Thunderstorm Wind 52 kts. EG 0 0 1.00K 0.00K
MELISSA COLLIN CO. TX 05/02/2009 19:10 CST-6 Hail 1.25 in. 0 0 0.00K 0.00K
BALCH SPGS DALLAS CO. TX 05/02/2009 20:20 CST-6 Flash Flood 0 0 7.00K 0.00K
MILFORD ELLIS CO. TX 05/02/2009 20:23 CST-6 Hail 0.88 in. 0 0 0.00K 0.00K
MUSTANG DENTON CO. TX 05/02/2009 20:29 CST-6 Flash Flood 0 0 0.50K 0.00K
SMOOTS DENTON CO. TX 05/02/2009 20:29 CST-6 Flash Flood 0 0 1.00K 0.00K
CORINTH DENTON CO. TX 05/02/2009 20:30 CST-6 Flash Flood 0 0 100.00K 0.00K
LITTLE ELM DENTON CO. TX 05/02/2009 20:30 CST-6 Flash Flood 0 0 75.00K 0.00K
ROANOKE DENTON CO. TX 05/02/2009 20:37 CST-6 Flash Flood 0 0 75.00K 0.00K
MCKINNEY COLLIN CO. TX 05/02/2009 20:38 CST-6 Flash Flood 0 0 2.00K 0.00K
FRISCO COLLIN CO. TX 05/02/2009 20:50 CST-6 Thunderstorm Wind 55 kts. EG 0 0 5.00K 0.00K
ROYSE CITY ROCKWALL CO. TX 05/02/2009 21:00 CST-6 Flash Flood 0 0 0.00K 0.00K
GARRETT ELLIS CO. TX 05/02/2009 21:13 CST-6 Hail 0.88 in. 0 0 0.00K 0.00K
CORINTH DENTON CO. TX 05/02/2009 21:30 CST-6 Flood 0 0 0.00K 0.00K
COOPER DELTA CO. TX 05/02/2009 22:00 CST-6 Thunderstorm Wind 50 kts. EG 0 0 20.00K 0.00K
FARMERS BRANCH DALLAS CO. TX 05/02/2009 22:00 CST-6 Flash Flood 0 0 5.00K 0.00K
MILLER GROVE HOPKINS CO. TX 05/02/2009 22:00 CST-6 Flash Flood 0 0 60.00K 0.00K
(ADS)ADDISON ARPT DA DALLAS CO. TX 05/02/2009 22:30 CST-6 Heavy Rain 0 0 75.00K 0.00K
ALPHA DALLAS CO. TX 05/02/2009 22:33 CST-6 Flash Flood 0 0 7.00K 0.00K
GRAPEVINE S LAKE ARP TARRANT CO. TX 05/03/2009 02:15 CST-6 Hail 0.75 in. 0 0 0.00K 0.00K
COPPELL DALLAS CO. TX 05/03/2009 02:45 CST-6 Hail 0.75 in. 0 0 0.00K 0.00K
ROYSE CITY ROCKWALL CO. TX 05/03/2009 03:00 CST-6 Flash Flood 0 0 7.00K 0.00K
HUBBARD HILL CO. TX 05/03/2009 03:50 CST-6 Thunderstorm Wind 50 kts. EG 0 0 2.00K 0.00K
BLUE RIDGE COLLIN CO. TX 05/03/2009 04:05 CST-6 Flash Flood 0 0 0.00K 0.00K
TENNESSEE COLONY ANDERSON CO. TX 05/03/2009 04:55 CST-6 Thunderstorm Wind 52 kts. EG 0 0 3.00K 0.00K
ELKHART ANDERSON CO. TX 05/03/2009 04:57 CST-6 Thunderstorm Wind 61 kts. EG 0 0 30.00K 0.00K
SALMON ANDERSON CO. TX 05/03/2009 05:05 CST-6 Thunderstorm Wind 61 kts. EG 0 0 25.00K 0.00K
PALESTINE ANDERSON CO. TX 05/03/2009 05:08 CST-6 Thunderstorm Wind 52 kts. EG 0 0 8.00K 0.00K
KAUFMAN FLYING G ARP KAUFMAN CO. TX 05/03/2009 06:00 CST-6 Flash Flood 0 0 3.00K 0.00K
LONE OAK HUNT CO. TX 05/03/2009 06:00 CST-6 Flash Flood 0 0 3.00K 0.00K
LONE OAK HUNT CO. TX 05/03/2009 06:10 CST-6 Flood 0 0 10.00K 0.00K
ALSA VAN ZANDT CO. TX 05/03/2009 06:50 CST-6 Flood 0 0 9.00K 0.00K
DAUGHERTY RAINS CO. TX 05/03/2009 06:50 CST-6 Flash Flood 0 0 15.00K 0.00K
DAUGHERTY RAINS CO. TX 05/03/2009 07:00 CST-6 Flood 0 0 0.00K 0.00K
Totals: 0 15 6.222M 0.00K